createdAt,value
2022-11-16T00:00:08.558Z,70.10
2022-11-16T00:03:12.890Z,70.27
2022-11-16T00:06:18.001Z,70.34
2022-11-16T00:09:27.067Z,71.04
2022-11-16T00:12:30.920Z,71.82
2022-11-16T00:15:34.551Z,71.86
2022-11-16T00:18:38.320Z,71.87
2022-11-16T00:21:43.740Z,72.88
2022-11-16T00:24:47.399Z,71.66
2022-11-16T00:27:51.163Z,71.66
2022-11-16T00:31:00.499Z,71.50
2022-11-16T00:34:04.239Z,71.50
2022-11-16T00:37:09.590Z,71.60
2022-11-16T00:40:14.343Z,71.42
2022-11-16T00:43:18.160Z,71.77
2022-11-16T00:46:21.939Z,71.32
2022-11-16T00:49:25.730Z,71.24
2022-11-16T00:52:31.098Z,71.26
2022-11-16T00:55:37.840Z,71.52
2022-11-16T00:58:41.550Z,73.03
2022-11-16T01:01:47.449Z,72.58
2022-11-16T01:04:51.311Z,72.92
2022-11-16T01:07:56.640Z,72.20
2022-11-16T01:11:21.380Z,71.59
2022-11-16T01:14:25.060Z,71.26
2022-11-16T01:17:29.352Z,70.70
2022-11-16T01:20:33.046Z,71.57
2022-11-16T01:23:38.229Z,71.72
2022-11-16T01:26:42.041Z,72.81
2022-11-16T01:29:45.806Z,73.33
2022-11-16T01:32:50.724Z,73.10
2022-11-16T01:35:55.075Z,73.10
2022-11-16T01:39:02.318Z,72.48
2022-11-16T01:42:18.967Z,72.59
2022-11-16T01:45:31.690Z,72.02
2022-11-16T01:48:36.807Z,72.20
2022-11-16T01:51:43.967Z,71.62
2022-11-16T01:54:54.341Z,72.57
2022-11-16T01:57:59.096Z,72.60
2022-11-16T02:01:05.132Z,72.61
2022-11-16T02:04:19.120Z,72.45
2022-11-16T02:08:02.160Z,72.11
2022-11-16T02:11:26.820Z,73.21
2022-11-16T02:14:44.508Z,72.06
2022-11-16T02:17:56.471Z,72.33
2022-11-16T02:21:11.682Z,72.48
2022-11-16T02:24:44.852Z,71.71
2022-11-16T02:28:15.326Z,73.67
2022-11-16T02:31:28.880Z,72.98
2022-11-16T02:34:39.738Z,72.02
2022-11-16T02:37:48.057Z,71.63
2022-11-16T02:40:58.990Z,72.25
2022-11-16T02:44:10.328Z,71.53
2022-11-16T02:47:21.927Z,71.71
2022-11-16T02:50:28.779Z,72.44
2022-11-16T02:53:35.334Z,72.08
2022-11-16T02:56:46.180Z,72.25
2022-11-16T02:59:55.870Z,72.38
2022-11-16T03:03:17.897Z,71.88
2022-11-16T03:06:25.879Z,72.58
2022-11-16T03:09:34.618Z,73.08
2022-11-16T03:12:40.419Z,73.16
2022-11-16T03:15:44.867Z,73.44
2022-11-16T03:18:55.230Z,72.96
2022-11-16T03:22:05.298Z,73.93
2022-11-16T03:25:13.368Z,74.36
2022-11-16T03:28:24.606Z,72.30
2022-11-16T03:31:36.121Z,72.23
2022-11-16T03:34:45.868Z,72.81
2022-11-16T03:37:53.498Z,72.28
2022-11-16T03:41:03.129Z,71.56
2022-11-16T03:44:09.241Z,70.87
2022-11-16T03:47:13.788Z,70.79
2022-11-16T03:50:19.393Z,71.16
2022-11-16T03:53:23.038Z,71.29
2022-11-16T03:56:27.039Z,70.94
2022-11-16T03:59:32.238Z,70.57
2022-11-16T04:02:36.739Z,70.33
2022-11-16T04:05:59.319Z,70.07
2022-11-16T04:09:20.470Z,70.56
2022-11-16T04:12:41.687Z,70.50
2022-11-16T04:16:00.778Z,71.30
2022-11-16T04:19:21.829Z,71.69
2022-11-16T04:22:50.178Z,70.98
2022-11-16T04:25:55.213Z,70.88
2022-11-16T04:28:58.917Z,71.03
2022-11-16T04:32:20.827Z,72.25
2022-11-16T04:35:44.748Z,71.46
2022-11-16T04:38:50.068Z,71.82
2022-11-16T04:42:12.649Z,71.19
2022-11-16T04:45:33.921Z,70.75
2022-11-16T04:48:37.760Z,71.17
2022-11-16T04:51:41.660Z,70.98
2022-11-16T04:54:46.799Z,71.89
2022-11-16T04:57:50.599Z,72.44
2022-11-16T05:00:54.656Z,72.29
2022-11-16T05:03:59.457Z,71.69
2022-11-16T05:07:03.513Z,71.60
2022-11-16T05:10:09.868Z,71.20
2022-11-16T05:13:15.010Z,71.80
2022-11-16T05:16:19.533Z,71.52
2022-11-16T05:19:40.561Z,70.69
2022-11-16T05:22:44.760Z,70.91
2022-11-16T05:25:50.004Z,70.86
2022-11-16T05:28:54.150Z,71.27
2022-11-16T05:31:57.929Z,71.30
2022-11-16T05:35:03.220Z,71.13
2022-11-16T05:38:07.081Z,71.80
2022-11-16T05:41:17.222Z,73.21
2022-11-16T05:44:21.294Z,72.11
2022-11-16T05:47:25.509Z,72.41
2022-11-16T05:50:29.411Z,71.28
2022-11-16T05:53:49.621Z,71.57
2022-11-16T05:57:00.102Z,74.53
2022-11-16T06:03:38.391Z,72.18
2022-11-16T06:06:42.570Z,72.12
2022-11-16T06:09:47.813Z,71.27
2022-11-16T06:12:57.910Z,70.79
2022-11-16T06:16:02.703Z,70.89
2022-11-16T06:19:08.211Z,68.38
2022-11-16T06:22:13.454Z,68.16
2022-11-16T06:25:18.190Z,68.04
2022-11-16T06:28:24.351Z,67.48
2022-11-16T06:31:28.452Z,67.96
2022-11-16T06:34:33.370Z,67.15
2022-11-16T06:37:38.575Z,68.20
2022-11-16T06:40:43.779Z,66.43
2022-11-16T06:43:49.083Z,67.53
2022-11-16T06:46:56.091Z,67.01
2022-11-16T06:50:01.766Z,65.59
2022-11-16T06:53:05.650Z,64.77
2022-11-16T06:56:13.943Z,65.28
2022-11-16T06:59:24.510Z,64.99
2022-11-16T07:02:28.621Z,63.40
2022-11-16T07:05:34.203Z,62.89
2022-11-16T07:08:39.160Z,62.54
2022-11-16T07:11:43.600Z,61.88
2022-11-16T07:14:49.229Z,60.03
2022-11-16T07:17:55.991Z,60.04
2022-11-16T07:20:59.893Z,60.17
2022-11-16T07:24:04.131Z,60.00
2022-11-16T07:27:09.670Z,58.41
2022-11-16T07:30:19.510Z,58.20
2022-11-16T07:33:32.881Z,58.45
2022-11-16T07:36:55.011Z,57.99
2022-11-16T07:39:59.130Z,56.86
2022-11-16T07:43:03.280Z,56.08
2022-11-16T07:49:39.370Z,56.13
2022-11-16T07:52:48.670Z,55.96
2022-11-16T07:55:56.520Z,55.81
2022-11-16T07:59:03.440Z,56.25
2022-11-16T08:02:13.291Z,54.90
2022-11-16T08:05:19.810Z,55.66
2022-11-16T08:08:25.790Z,55.30
2022-11-16T08:11:29.874Z,54.66
2022-11-16T08:14:33.991Z,55.08
2022-11-16T08:17:40.232Z,56.30
2022-11-16T08:20:46.694Z,55.94
2022-11-16T08:23:55.248Z,55.72
2022-11-16T08:27:02.728Z,54.63
2022-11-16T08:30:10.172Z,54.41
2022-11-16T08:33:18.180Z,53.30
2022-11-16T08:36:22.521Z,52.91
2022-11-16T08:39:26.623Z,52.12
2022-11-16T08:42:30.580Z,52.24
2022-11-16T08:45:34.859Z,52.08
2022-11-16T08:48:40.889Z,51.35
2022-11-16T08:51:45.843Z,51.02
2022-11-16T08:54:50.540Z,52.21
2022-11-16T08:57:54.856Z,51.73
2022-11-16T09:01:00.378Z,50.89
2022-11-16T09:04:05.660Z,50.27
2022-11-16T09:07:09.463Z,50.49
2022-11-16T09:10:14.579Z,49.73
2022-11-16T09:13:18.292Z,48.90
2022-11-16T09:16:22.999Z,49.61
2022-11-16T09:19:28.534Z,48.95
2022-11-16T09:22:32.439Z,48.74
2022-11-16T09:25:36.469Z,49.70
2022-11-16T09:28:40.410Z,49.73
2022-11-16T09:31:44.601Z,48.54
2022-11-16T09:34:50.050Z,49.39
2022-11-16T09:37:53.826Z,48.05
2022-11-16T09:40:58.710Z,47.73
2022-11-16T09:44:14.589Z,47.51
2022-11-16T09:47:22.075Z,47.79
2022-11-16T09:50:41.708Z,48.05
2022-11-16T09:53:49.161Z,47.83
2022-11-16T09:56:58.721Z,47.37
2022-11-16T10:00:06.179Z,47.98
2022-11-16T10:03:17.640Z,47.60
2022-11-16T10:06:29.041Z,48.42
2022-11-16T10:09:33.000Z,47.29
2022-11-16T10:12:44.042Z,46.68
2022-11-16T10:16:00.499Z,47.25
2022-11-16T10:19:13.701Z,46.76
2022-11-16T10:22:32.080Z,46.17
2022-11-16T10:25:44.541Z,45.88
2022-11-16T10:29:05.989Z,47.08
2022-11-16T10:32:19.329Z,46.43
2022-11-16T10:35:29.420Z,45.72
2022-11-16T10:38:35.663Z,44.94
2022-11-16T10:41:44.225Z,45.05
2022-11-16T10:44:54.450Z,44.90
2022-11-16T10:48:03.659Z,44.33
2022-11-16T10:51:09.450Z,44.55
2022-11-16T10:54:15.770Z,44.35
2022-11-16T10:57:19.841Z,44.94
2022-11-16T11:00:35.911Z,45.58
2022-11-16T11:03:39.781Z,46.51
2022-11-16T11:06:44.450Z,46.52
2022-11-16T11:09:54.210Z,45.89
2022-11-16T11:13:08.282Z,46.28
2022-11-16T11:16:18.350Z,46.12
2022-11-16T11:19:27.820Z,45.82
2022-11-16T11:22:33.251Z,45.87
2022-11-16T11:25:42.590Z,45.73
2022-11-16T11:28:51.500Z,45.87
2022-11-16T11:31:57.781Z,46.27
2022-11-16T11:35:02.301Z,46.13
2022-11-16T11:38:08.270Z,46.62
2022-11-16T11:41:20.722Z,47.64
2022-11-16T11:44:32.700Z,47.51
2022-11-16T11:47:58.146Z,46.07
2022-11-16T11:51:10.850Z,46.02
2022-11-16T11:54:22.498Z,46.55
2022-11-16T11:57:27.880Z,46.38
2022-11-16T12:00:42.920Z,46.90
2022-11-16T12:04:13.780Z,46.64
2022-11-16T12:07:29.052Z,46.05
2022-11-16T12:10:46.491Z,46.52
2022-11-16T12:14:18.529Z,46.63
2022-11-16T12:17:35.469Z,46.94
2022-11-16T12:20:48.380Z,47.24
2022-11-16T12:24:09.899Z,47.41
2022-11-16T12:27:27.327Z,47.15
2022-11-16T12:30:40.039Z,47.90
2022-11-16T12:33:56.410Z,48.77
2022-11-16T12:37:06.411Z,49.27
2022-11-16T12:40:32.031Z,48.90
2022-11-16T12:43:45.310Z,48.44
2022-11-16T12:47:01.269Z,48.95
2022-11-16T12:50:16.739Z,49.66
2022-11-16T12:53:32.250Z,50.57
2022-11-16T12:56:48.872Z,51.38
2022-11-16T13:00:08.740Z,51.34
2022-11-16T13:03:22.129Z,51.52
2022-11-16T13:06:30.819Z,51.92
2022-11-16T13:09:38.760Z,52.64
2022-11-16T13:12:45.600Z,52.27
2022-11-16T13:15:49.718Z,51.85
2022-11-16T13:18:57.769Z,51.88
2022-11-16T13:22:08.441Z,52.56
2022-11-16T13:25:22.419Z,52.44
2022-11-16T13:28:35.658Z,52.95
2022-11-16T13:31:47.199Z,53.05
2022-11-16T13:34:53.466Z,53.46
2022-11-16T13:37:57.293Z,53.92
2022-11-16T13:41:28.039Z,54.45
2022-11-16T13:44:32.069Z,55.32
2022-11-16T13:47:36.590Z,55.53
2022-11-16T13:50:48.272Z,55.54
2022-11-16T13:57:25.982Z,55.17
2022-11-16T14:00:33.650Z,55.66
2022-11-16T14:03:42.090Z,55.88
2022-11-16T14:07:01.233Z,55.77
2022-11-16T14:10:08.170Z,56.46
2022-11-16T14:13:40.819Z,56.54
2022-11-16T14:16:50.829Z,56.40
2022-11-16T14:19:56.460Z,57.82
2022-11-16T14:23:13.481Z,60.12
2022-11-16T14:26:24.768Z,61.51
2022-11-16T14:29:47.519Z,62.50
2022-11-16T14:32:53.993Z,63.05
2022-11-16T14:35:58.178Z,62.70
2022-11-16T14:39:21.869Z,63.70
2022-11-16T14:42:38.132Z,63.94
2022-11-16T14:45:50.658Z,64.60
2022-11-16T14:48:57.499Z,64.77
2022-11-16T14:52:04.629Z,65.50
2022-11-16T14:55:18.469Z,65.62
2022-11-16T14:58:24.288Z,65.94
2022-11-16T15:01:30.742Z,65.48
2022-11-16T15:04:34.619Z,65.35
2022-11-16T15:07:38.611Z,65.64
2022-11-16T15:10:52.149Z,65.54
2022-11-16T15:13:59.579Z,66.15
2022-11-16T15:17:03.359Z,65.98
2022-11-16T15:20:19.881Z,66.63
2022-11-16T15:23:27.662Z,66.84
2022-11-16T15:26:35.729Z,66.34
2022-11-16T15:29:40.361Z,66.56
2022-11-16T15:32:45.220Z,66.90
2022-11-16T15:35:48.979Z,66.94
2022-11-16T15:38:54.598Z,67.13
2022-11-16T15:42:03.829Z,67.38
2022-11-16T15:45:19.569Z,67.01
2022-11-16T15:48:25.779Z,66.86
2022-11-16T15:51:32.538Z,67.04
2022-11-16T15:54:51.450Z,67.15
2022-11-16T15:58:06.109Z,67.13
2022-11-16T16:01:10.913Z,67.03
2022-11-16T16:04:17.888Z,66.67
2022-11-16T16:07:37.458Z,66.59
2022-11-16T16:10:43.001Z,66.15
2022-11-16T16:13:59.960Z,65.85
2022-11-16T16:17:03.629Z,66.09
2022-11-16T16:20:10.546Z,65.68
2022-11-16T16:23:16.949Z,65.52
2022-11-16T16:26:20.889Z,66.40
2022-11-16T16:29:28.431Z,66.03
2022-11-16T16:32:34.159Z,65.59
2022-11-16T16:35:38.050Z,65.40
2022-11-16T16:38:42.069Z,65.09
2022-11-16T16:41:48.241Z,65.13
2022-11-16T16:44:53.870Z,66.10
2022-11-16T16:47:57.492Z,66.09
2022-11-16T16:51:01.251Z,65.56
2022-11-16T16:54:05.269Z,66.19
2022-11-16T16:57:13.409Z,65.77
2022-11-16T17:00:19.819Z,65.39
2022-11-16T17:03:24.540Z,65.58
2022-11-16T17:06:30.878Z,65.99
2022-11-16T17:09:34.500Z,65.66
2022-11-16T17:12:38.310Z,65.49
2022-11-16T17:15:43.589Z,65.45
2022-11-16T17:18:48.026Z,65.69
2022-11-16T17:21:52.879Z,65.42
2022-11-16T17:24:56.510Z,65.11
2022-11-16T17:28:00.359Z,65.36
2022-11-16T17:31:07.139Z,66.19
2022-11-16T17:34:13.761Z,65.54
2022-11-16T17:37:18.362Z,65.93
2022-11-16T17:40:21.959Z,65.93
2022-11-16T17:43:25.799Z,65.58
2022-11-16T17:46:30.920Z,65.60
2022-11-16T17:49:34.710Z,65.40
2022-11-16T17:52:38.420Z,65.26
2022-11-16T17:55:43.732Z,66.08
2022-11-16T17:58:50.287Z,66.51
2022-11-16T18:01:55.558Z,66.48
2022-11-16T18:04:59.165Z,67.05
2022-11-16T18:08:02.980Z,67.26
2022-11-16T18:11:08.329Z,66.43
2022-11-16T18:14:12.055Z,66.47
2022-11-16T18:17:17.170Z,66.40
2022-11-16T18:20:21.490Z,66.81
2022-11-16T18:23:25.162Z,66.63
2022-11-16T18:26:28.933Z,66.48
2022-11-16T18:29:32.650Z,66.27
2022-11-16T18:32:37.860Z,66.50
2022-11-16T18:35:41.872Z,66.42
2022-11-16T18:38:45.782Z,66.79
2022-11-16T18:41:54.990Z,66.64
2022-11-16T18:44:58.989Z,66.33
2022-11-16T18:48:04.130Z,66.90
2022-11-16T18:51:08.100Z,68.23
2022-11-16T18:54:11.831Z,68.17
2022-11-16T18:57:15.620Z,67.81
2022-11-16T19:00:21.690Z,68.40
2022-11-16T19:03:26.870Z,68.57
2022-11-16T19:06:33.378Z,68.30
2022-11-16T19:09:37.109Z,68.00
2022-11-16T19:12:40.899Z,68.59
2022-11-16T19:15:44.741Z,68.84
2022-11-16T19:18:51.270Z,69.66
2022-11-16T19:21:56.601Z,68.72
2022-11-16T19:25:05.704Z,68.72
2022-11-16T19:28:10.348Z,69.25
2022-11-16T19:31:16.439Z,69.21
2022-11-16T19:34:21.570Z,69.32
2022-11-16T19:37:25.370Z,69.90
2022-11-16T19:40:29.019Z,70.33
2022-11-16T19:43:33.466Z,69.95
2022-11-16T19:46:37.509Z,70.43
2022-11-16T19:49:42.798Z,69.69
2022-11-16T19:52:46.721Z,70.29
2022-11-16T19:55:55.178Z,70.19
2022-11-16T19:58:59.066Z,70.13
2022-11-16T20:02:02.750Z,70.51
2022-11-16T20:05:09.148Z,70.21
2022-11-16T20:08:12.861Z,69.77
2022-11-16T20:11:18.498Z,69.30
2022-11-16T20:14:22.317Z,69.08
2022-11-16T20:17:26.180Z,69.35
2022-11-16T20:20:31.338Z,70.66
2022-11-16T20:23:35.893Z,70.51
2022-11-16T20:26:43.715Z,70.09
2022-11-16T20:29:47.707Z,70.00
2022-11-16T20:32:51.378Z,69.70
2022-11-16T20:36:01.833Z,70.29
2022-11-16T20:39:05.726Z,70.50
2022-11-16T20:42:09.368Z,70.42
2022-11-16T20:45:13.317Z,70.59
2022-11-16T20:48:17.057Z,70.57
2022-11-16T20:51:22.608Z,70.83
2022-11-16T20:54:26.278Z,71.67
2022-11-16T20:57:29.958Z,70.95
2022-11-16T21:00:33.749Z,70.56
2022-11-16T21:03:37.764Z,70.81
2022-11-16T21:06:43.207Z,70.09
2022-11-16T21:10:04.273Z,70.67
2022-11-16T21:13:26.298Z,70.23
2022-11-16T21:16:29.957Z,70.70
2022-11-16T21:19:33.752Z,70.63
2022-11-16T21:22:39.008Z,70.52
2022-11-16T21:25:42.588Z,70.77
2022-11-16T21:28:46.268Z,72.66
2022-11-16T21:31:50.327Z,73.64
2022-11-16T21:34:54.340Z,72.55
2022-11-16T21:37:59.839Z,72.16
2022-11-16T21:41:06.447Z,72.20
2022-11-16T21:44:10.209Z,72.51
2022-11-16T21:47:14.289Z,71.64
2022-11-16T21:50:31.752Z,71.65
2022-11-16T21:53:37.979Z,71.09
2022-11-16T21:56:41.861Z,71.58
2022-11-16T21:59:45.608Z,71.53
2022-11-16T22:02:49.360Z,71.43
2022-11-16T22:06:13.687Z,71.33
2022-11-16T22:09:18.918Z,71.11
2022-11-16T22:12:22.678Z,71.52
2022-11-16T22:15:26.408Z,71.25
2022-11-16T22:18:31.188Z,71.79
2022-11-16T22:21:34.908Z,72.13
2022-11-16T22:24:40.312Z,71.72
2022-11-16T22:28:05.942Z,71.38
2022-11-16T22:31:10.946Z,73.43
2022-11-16T22:34:14.612Z,72.76
2022-11-16T22:37:18.588Z,72.79
2022-11-16T22:40:23.545Z,71.88
2022-11-16T22:43:28.380Z,71.97
2022-11-16T22:46:32.280Z,72.14
2022-11-16T22:49:35.907Z,72.79
2022-11-16T22:52:39.818Z,73.40
2022-11-16T22:55:44.979Z,73.14
2022-11-16T22:58:48.648Z,73.03
2022-11-16T23:01:52.297Z,74.25
2022-11-16T23:04:56.219Z,74.20
2022-11-16T23:08:00.199Z,73.82
2022-11-16T23:11:25.629Z,74.29
2022-11-16T23:14:46.370Z,74.95
2022-11-16T23:17:50.171Z,75.27
2022-11-16T23:21:11.247Z,77.35
2022-11-16T23:24:33.821Z,77.83
2022-11-16T23:27:42.595Z,77.25
2022-11-16T23:30:46.400Z,79.51
2022-11-16T23:33:50.090Z,78.39
2022-11-16T23:36:53.763Z,82.24
2022-11-16T23:39:57.531Z,82.25
2022-11-16T23:43:20.629Z,82.38
2022-11-16T23:46:24.241Z,80.71
2022-11-16T23:49:27.880Z,82.29
2022-11-16T23:52:31.560Z,80.86
2022-11-16T23:55:35.829Z,81.44
2022-11-16T23:58:41.030Z,82.02
